Página principal
METAR-TAF:

METAR-TAF

Aeroportos :

Bratsk, Rússia

latitude: 56-22-15N, longitude: 101-41-55E, altura: 490 m

Observação actual do tempo

O boletim foi feito há 14 minutos, às 12:30 UTC
Vento 6 kt de norte, variando entre noroeste e nordeste
Temperatura 15°C
Humidade 94%
Pressão 1002 hPa
Visibilidade: 9000 m
Nuvens dispersasa uma altura de 4000 ft, Cumulonimbus.
aguaceiros fracos de chuva

METAR: UIBB 201230Z 36003MPS 310V040 9000 -SHRA SCT040CB 15/14 Q1002 R30/290150 NOSIG RMK QFE709/0945

Hora: 20:44 (12:44 UTC)

Previsão

O boletim foi feito há 1 hora e 44 minutos, às 11:00 UTC
Previsão válida de 20 às 12 UTC a 21 às 12 UTC
Vento 12 kt de nor-noroeste
Visibilidade: 5000 m
Nuvens fragmentadasa uma altura de 1600 ft, Cumulonimbus.
aguaceiros fracos de chuva, fumo

TAF: UIBB 201100Z 2012/2112 33006MPS 5000 -SHRA FU BKN016CB

Observações e previsões do tempo de mais de 4000 aeroportos (mensagens METAR e TAF).

As estações disponíveis são os pontos amarelos e vermelhos sobre o mapa.

Mova o rato sobre o mapa para ver o nome da estação.

Depois clique no ponto para visualizar as observações e previsões meteorológicas.

Para alterar o mapa : clique nos botões verdes com uma cruz preta para aumentar o zoom; no botão verde com uma pitada de zoom; ou nas setas verdes para mapas adjacentes.


METAR-TAF: